VYTN weather

Tanai Airport
Tanai, Kachin State, Burma

Public forecast

Using degrees Celsius for public forecast. Weather courtesy of forecast.io.

Closest aviation weather report (METAR) to Tanai Airport

Closest report is Dibrugarh Airport, 113.7 nm (210.6 km) NW. Retrieved 2020/02/19 06:30 UTC (13 minutes ago):

VEMN 190630Z 00000KT HZ SCT020 BKN100 20/16 Q1017 NOSIG

Closest aviation forecast (TAF) to Tanai Airport

Closest forecast is Jorhat Airport, 139.1 nm (257.6 km) W. Retrieved 2020/02/19 06:30 UTC (13 minutes ago):

TAF VEJT 190330Z 1906/1918 05005KT 3500 BR SCT020 BKN090 BECMG 1907/1908 5000 HZ SCT025 SCT090 BECMG 1910/1911 VRB02KT 4000 BR BECMG 1912/1913 3000 BR BECMG 1916/1917 2000 BR TEMPO 1911/1914 FEW025TCU